Time;durP1;ratioP1;P1;durP2;ratioP2;P2;SDS_P1;SDS_P2;PMS_P1;PMS_P2;Temp;Humidity;BMP_temperature;BMP_pressure;BME280_temperature;BME280_humidity;BME280_pressure;Samples;Min_cycle;Max_cycle;Signal;HPM_P1;HPM_P2
2023/05/20 00:04:34;;;;;;;30.98;11.30;;;;;;;;;;10416409;28;20032;-71
2023/05/20 00:09:35;;;;;;;25.10;11.05;;;;;;;;;;10416160;28;20029;-72
2023/05/20 00:14:35;;;;;;;24.98;12.30;;;;;;;;;;10416073;28;20037;-72
2023/05/20 00:19:35;;;;;;;18.73;11.07;;;;;;;;;;10415854;28;20075;-71
2023/05/20 00:24:35;;;;;;;19.38;11.52;;;;;;;;;;10415625;28;20021;-71
2023/05/20 00:29:36;;;;;;;28.30;12.63;;;;;;;;;;10415837;28;20033;-73
2023/05/20 00:34:36;;;;;;;23.25;11.27;;;;;;;;;;10415611;28;20048;-73
2023/05/20 00:39:36;;;;;;;22.60;10.73;;;;;;;;;;10415437;28;20060;-72
2023/05/20 00:44:36;;;;;;;21.95;10.70;;;;;;;;;;10415582;28;20237;-73
2023/05/20 00:49:36;;;;;;;22.50;10.52;;;;;;;;;;10415114;28;20029;-71
2023/05/20 00:54:37;;;;;;;19.38;9.38;;;;;;;;;;10414481;28;20049;-73
2023/05/20 00:59:38;;;;;;;21.33;10.95;;;;;;;;;;10415378;28;20104;-73
2023/05/20 01:04:38;;;;;;;27.27;11.88;;;;;;;;;;10416344;28;20331;-72
2023/05/20 01:09:39;;;;;;;20.67;9.85;;;;;;;;;;10414879;28;20418;-71
2023/05/20 01:14:44;;;;;;;26.27;11.68;;;;;;;;;;10414555;28;20033;-71
2023/05/20 01:19:46;;;;;;;23.95;9.88;;;;;;;;;;10414156;28;20036;-72
2023/05/20 01:24:52;;;;;;;18.48;11.00;;;;;;;;;;10414560;28;20053;-72
2023/05/20 01:29:53;;;;;;;17.73;9.88;;;;;;;;;;10415030;28;20108;-71
2023/05/20 01:34:54;;;;;;;19.67;9.70;;;;;;;;;;10414452;28;20279;-72
2023/05/20 01:39:55;;;;;;;23.40;10.70;;;;;;;;;;10413661;28;20086;-73
2023/05/20 01:44:55;;;;;;;17.88;10.45;;;;;;;;;;10406731;28;20209;-72
2023/05/20 01:49:55;;;;;;;17.52;9.15;;;;;;;;;;10414191;28;20057;-72
2023/05/20 01:54:56;;;;;;;19.05;9.80;;;;;;;;;;10413541;28;20224;-72
2023/05/20 01:59:56;;;;;;;16.08;9.65;;;;;;;;;;10413208;28;20102;-71
2023/05/20 02:04:57;;;;;;;20.37;9.77;;;;;;;;;;10390171;28;20034;-71
2023/05/20 02:09:57;;;;;;;20.33;10.20;;;;;;;;;;10418245;28;20346;-71
2023/05/20 02:14:57;;;;;;;19.08;10.15;;;;;;;;;;10420339;28;20324;-72
2023/05/20 02:19:58;;;;;;;21.55;9.57;;;;;;;;;;10420521;28;20036;-72
2023/05/20 02:24:58;;;;;;;18.95;10.45;;;;;;;;;;10420841;28;20033;-71
2023/05/20 02:29:59;;;;;;;22.33;10.13;;;;;;;;;;10420283;28;20037;-71
2023/05/20 02:34:59;;;;;;;29.05;10.65;;;;;;;;;;10420391;28;20231;-71
2023/05/20 02:40:00;;;;;;;17.40;9.32;;;;;;;;;;10413684;28;20042;-71
2023/05/20 02:45:00;;;;;;;17.67;8.83;;;;;;;;;;10417829;28;20075;-71
2023/05/20 02:50:00;;;;;;;14.25;8.40;;;;;;;;;;10419630;28;20036;-71
2023/05/20 02:55:01;;;;;;;18.83;9.68;;;;;;;;;;10418994;28;20029;-72
2023/05/20 03:00:01;;;;;;;15.27;9.47;;;;;;;;;;10418812;28;20029;-72
2023/05/20 03:05:02;;;;;;;23.98;9.90;;;;;;;;;;10419246;28;20568;-72
2023/05/20 03:10:03;;;;;;;17.77;10.38;;;;;;;;;;10418793;28;20049;-73
2023/05/20 03:15:04;;;;;;;18.13;9.65;;;;;;;;;;10417930;28;20079;-73
2023/05/20 03:20:05;;;;;;;23.40;10.05;;;;;;;;;;10418326;28;20517;-73
2023/05/20 03:25:06;;;;;;;19.20;8.98;;;;;;;;;;10417897;28;20214;-73
2023/05/20 03:30:07;;;;;;;24.05;9.38;;;;;;;;;;10417686;28;20025;-73
2023/05/20 03:35:08;;;;;;;16.70;9.20;;;;;;;;;;10417849;28;20546;-73
2023/05/20 03:40:11;;;;;;;20.10;9.48;;;;;;;;;;10419011;28;20040;-72
2023/05/20 03:45:12;;;;;;;21.30;10.02;;;;;;;;;;10415858;28;20033;-72
2023/05/20 03:50:12;;;;;;;19.27;8.52;;;;;;;;;;10415969;28;20317;-72
2023/05/20 03:55:12;;;;;;;13.15;7.50;;;;;;;;;;10416534;28;20056;-74
2023/05/20 04:00:13;;;;;;;12.45;6.82;;;;;;;;;;10416895;28;20223;-73
2023/05/20 04:05:13;;;;;;;15.38;8.57;;;;;;;;;;10416902;28;20034;-73
2023/05/20 04:10:14;;;;;;;8.68;6.00;;;;;;;;;;10417396;28;20071;-73
2023/05/20 04:15:14;;;;;;;13.60;7.63;;;;;;;;;;10416260;28;20088;-71
2023/05/20 04:20:14;;;;;;;18.63;6.97;;;;;;;;;;10416045;28;20034;-72
2023/05/20 04:25:15;;;;;;;11.43;7.15;;;;;;;;;;10414991;28;20267;-71
2023/05/20 04:30:17;;;;;;;13.27;7.53;;;;;;;;;;10410469;28;20326;-72
2023/05/20 04:35:17;;;;;;;13.68;7.63;;;;;;;;;;10414938;28;20041;-72
2023/05/20 04:40:17;;;;;;;12.87;7.03;;;;;;;;;;10415474;28;20244;-71
2023/05/20 04:45:18;;;;;;;18.58;6.97;;;;;;;;;;10415779;28;20603;-70
2023/05/20 04:50:18;;;;;;;27.80;7.43;;;;;;;;;;10414613;28;20021;-71
2023/05/20 04:55:20;;;;;;;55.70;9.10;;;;;;;;;;10413005;28;20064;-71
2023/05/20 05:00:20;;;;;;;19.27;6.63;;;;;;;;;;10411800;28;20611;-71
2023/05/20 05:05:20;;;;;;;11.90;6.85;;;;;;;;;;10405646;28;20029;-71
2023/05/20 05:10:22;;;;;;;31.35;8.65;;;;;;;;;;10376402;28;20323;-73
2023/05/20 05:15:22;;;;;;;9.73;6.15;;;;;;;;;;10380864;28;20037;-75
2023/05/20 05:20:23;;;;;;;15.32;6.93;;;;;;;;;;10375835;28;20025;-72
2023/05/20 05:25:23;;;;;;;12.13;6.22;;;;;;;;;;10357592;23;20436;-75
2023/05/20 05:30:23;;;;;;;12.95;6.40;;;;;;;;;;10323107;28;20909;-76
2023/05/20 05:35:24;;;;;;;12.95;6.68;;;;;;;;;;10299903;28;20046;-73
2023/05/20 05:40:25;;;;;;;16.60;7.15;;;;;;;;;;10334400;28;20030;-73
2023/05/20 05:45:26;;;;;;;16.33;7.05;;;;;;;;;;10320220;28;20034;-75
2023/05/20 05:50:26;;;;;;;16.10;6.03;;;;;;;;;;10320716;28;20035;-78
2023/05/20 05:55:26;;;;;;;22.15;7.53;;;;;;;;;;10311995;28;20476;-76
2023/05/20 06:00:26;;;;;;;13.83;5.97;;;;;;;;;;10317364;28;20408;-74
2023/05/20 06:05:27;;;;;;;12.10;6.78;;;;;;;;;;10300733;28;20737;-79
2023/05/20 06:10:27;;;;;;;11.07;5.00;;;;;;;;;;10318698;28;20356;-75
2023/05/20 06:15:27;;;;;;;8.38;4.50;;;;;;;;;;10338646;28;20042;-75
2023/05/20 06:20:28;;;;;;;15.50;4.70;;;;;;;;;;10323912;28;20125;-74
2023/05/20 06:25:28;;;;;;;6.88;3.90;;;;;;;;;;10322908;28;20054;-76
2023/05/20 06:30:28;;;;;;;6.00;3.15;;;;;;;;;;10321686;28;20101;-77
2023/05/20 06:35:28;;;;;;;7.45;4.30;;;;;;;;;;10337728;28;20070;-76
2023/05/20 06:40:29;;;;;;;6.67;3.50;;;;;;;;;;10338051;28;20030;-78
2023/05/20 06:45:29;;;;;;;11.07;3.97;;;;;;;;;;10339241;28;20040;-75
2023/05/20 06:50:29;;;;;;;6.70;3.23;;;;;;;;;;10333047;28;20065;-78
2023/05/20 06:55:30;;;;;;;7.47;4.28;;;;;;;;;;10322148;28;20405;-77
2023/05/20 07:00:30;;;;;;;8.00;3.53;;;;;;;;;;10336126;28;20121;-76
2023/05/20 07:05:30;;;;;;;6.80;3.90;;;;;;;;;;10336377;28;20085;-75
2023/05/20 07:10:31;;;;;;;10.13;3.47;;;;;;;;;;10320455;28;20094;-76
2023/05/20 07:15:31;;;;;;;9.57;4.53;;;;;;;;;;10321547;28;20026;-74
2023/05/20 07:20:31;;;;;;;5.47;3.70;;;;;;;;;;10335566;28;20903;-77
2023/05/20 07:25:32;;;;;;;7.60;4.22;;;;;;;;;;10320092;28;20062;-73
2023/05/20 07:30:32;;;;;;;5.60;3.55;;;;;;;;;;10335937;28;20436;-75
2023/05/20 07:35:32;;;;;;;7.80;3.90;;;;;;;;;;10334916;28;20046;-73
2023/05/20 07:40:35;;;;;;;9.13;3.60;;;;;;;;;;10319806;28;20135;-72
2023/05/20 07:45:37;;;;;;;5.60;4.00;;;;;;;;;;10319657;28;20042;-80
2023/05/20 07:50:38;;;;;;;7.72;3.80;;;;;;;;;;10317886;28;20116;-77
2023/05/20 07:55:38;;;;;;;7.63;3.78;;;;;;;;;;10318160;28;20034;-75
2023/05/20 08:00:38;;;;;;;6.57;3.73;;;;;;;;;;10334437;28;20385;-74
2023/05/20 08:05:42;;;;;;;6.85;3.60;;;;;;;;;;10317466;28;20045;-72
2023/05/20 08:10:42;;;;;;;7.80;3.88;;;;;;;;;;10318823;28;20038;-78
2023/05/20 08:15:42;;;;;;;5.83;4.00;;;;;;;;;;10317615;28;20038;-72
2023/05/20 08:20:43;;;;;;;10.85;4.65;;;;;;;;;;10333196;28;20030;-75
2023/05/20 08:25:47;;;;;;;10.90;5.43;;;;;;;;;;10316674;28;20196;-77
2023/05/20 08:30:48;;;;;;;8.13;4.00;;;;;;;;;;10333461;28;20496;-78
2023/05/20 08:35:48;;;;;;;7.47;3.83;;;;;;;;;;10332123;28;20046;-75
2023/05/20 08:40:55;;;;;;;7.03;3.70;;;;;;;;;;10332177;28;20034;-78
2023/05/20 08:45:55;;;;;;;6.63;3.38;;;;;;;;;;10316881;28;20072;-74
2023/05/20 08:50:56;;;;;;;5.88;3.65;;;;;;;;;;10315884;28;20030;-73
2023/05/20 08:56:01;;;;;;;6.45;3.78;;;;;;;;;;10318014;28;20046;-79
2023/05/20 09:01:01;;;;;;;6.95;3.42;;;;;;;;;;10317298;28;20035;-78
2023/05/20 09:06:05;;;;;;;5.47;3.40;;;;;;;;;;10332530;28;20030;-77
2023/05/20 09:11:08;;;;;;;4.47;3.30;;;;;;;;;;10316035;28;20401;-80
2023/05/20 09:16:09;;;;;;;8.60;3.80;;;;;;;;;;10323573;28;20485;-73
2023/05/20 09:21:10;;;;;;;5.88;3.33;;;;;;;;;;10325910;28;20038;-79
2023/05/20 09:26:11;;;;;;;8.30;3.70;;;;;;;;;;10300258;28;20042;-75
2023/05/20 09:31:12;;;;;;;4.80;3.55;;;;;;;;;;10284446;28;20043;-77
2023/05/20 09:36:14;;;;;;;5.00;3.28;;;;;;;;;;10283225;28;20090;-74
2023/05/20 09:41:14;;;;;;;7.15;3.63;;;;;;;;;;10282902;28;20041;-76
2023/05/20 09:46:15;;;;;;;7.72;3.00;;;;;;;;;;10282952;28;20484;-75
2023/05/20 09:51:16;;;;;;;5.07;3.65;;;;;;;;;;10277709;28;20527;-77
2023/05/20 09:56:18;;;;;;;7.72;3.67;;;;;;;;;;10298476;28;20074;-73
2023/05/20 10:01:19;;;;;;;5.65;3.33;;;;;;;;;;10282629;28;20094;-77
2023/05/20 10:06:19;;;;;;;7.35;3.28;;;;;;;;;;10281528;28;20063;-82
2023/05/20 10:11:39;;;;;;;5.50;3.20;;;;;;;;;;10283878;28;20027;-73
2023/05/20 10:16:58;;;;;;;7.78;3.67;;;;;;;;;;10282693;28;20031;-77
2023/05/20 10:22:04;;;;;;;6.15;3.10;;;;;;;;;;10281444;28;20401;-77
2023/05/20 10:27:07;;;;;;;5.57;2.92;;;;;;;;;;10264247;28;20038;-72
2023/05/20 10:32:07;;;;;;;8.60;2.95;;;;;;;;;;10281510;28;20027;-77
2023/05/20 10:37:08;;;;;;;6.40;2.77;;;;;;;;;;10281861;28;20034;-74
2023/05/20 10:42:09;;;;;;;3.53;2.20;;;;;;;;;;10280933;28;20556;-71
2023/05/20 10:47:09;;;;;;;5.55;2.88;;;;;;;;;;10264954;28;20035;-76
2023/05/20 10:52:10;;;;;;;5.90;2.80;;;;;;;;;;10282568;28;20034;-82
2023/05/20 10:57:10;;;;;;;10.30;3.50;;;;;;;;;;10265753;28;20034;-75
2023/05/20 11:02:12;;;;;;;7.70;3.30;;;;;;;;;;10266114;28;20281;-81
2023/05/20 11:07:12;;;;;;;5.78;3.28;;;;;;;;;;10263980;28;20137;-79
2023/05/20 11:12:12;;;;;;;6.95;3.90;;;;;;;;;;10280103;28;20911;-74
2023/05/20 11:17:12;;;;;;;6.30;4.30;;;;;;;;;;10281605;28;20046;-74
2023/05/20 11:22:13;;;;;;;6.57;3.92;;;;;;;;;;10274018;28;20528;-72
2023/05/20 11:27:13;;;;;;;21.77;4.75;;;;;;;;;;10319863;28;20035;-78
2023/05/20 11:32:13;;;;;;;6.25;4.15;;;;;;;;;;10319847;28;20497;-77
2023/05/20 11:37:14;;;;;;;8.50;4.50;;;;;;;;;;10302935;28;20492;-73
2023/05/20 11:42:15;;;;;;;11.07;4.15;;;;;;;;;;10319545;28;20030;-77
2023/05/20 11:47:15;;;;;;;8.90;4.68;;;;;;;;;;10320748;28;20030;-74
2023/05/20 11:52:15;;;;;;;8.35;3.95;;;;;;;;;;10319149;28;20026;-77
2023/05/20 11:57:16;;;;;;;13.07;4.55;;;;;;;;;;10319527;28;20038;-77
2023/05/20 12:02:17;;;;;;;7.40;4.30;;;;;;;;;;10302492;28;20134;-74
2023/05/20 12:07:17;;;;;;;7.90;4.35;;;;;;;;;;10319137;28;20034;-73
2023/05/20 12:12:18;;;;;;;7.70;4.40;;;;;;;;;;10325786;28;20038;-80
2023/05/20 12:17:19;;;;;;;8.55;3.78;;;;;;;;;;10302601;28;20034;-75
2023/05/20 12:22:19;;;;;;;6.18;4.05;;;;;;;;;;10318905;28;20051;-73
2023/05/20 12:27:19;;;;;;;4.40;2.58;;;;;;;;;;10317606;28;20038;-77
2023/05/20 12:32:20;;;;;;;6.85;3.25;;;;;;;;;;10317563;28;20070;-80
2023/05/20 12:37:20;;;;;;;9.77;3.67;;;;;;;;;;10317534;28;20034;-75
2023/05/20 12:42:21;;;;;;;6.17;3.77;;;;;;;;;;10318532;28;20452;-78
2023/05/20 12:47:21;;;;;;;8.37;3.30;;;;;;;;;;10300395;28;20034;-74
2023/05/20 12:52:21;;;;;;;17.47;4.33;;;;;;;;;;10316075;28;20257;-79
2023/05/20 12:57:25;;;;;;;6.35;4.00;;;;;;;;;;10316427;28;20122;-76
2023/05/20 13:02:25;;;;;;;7.40;3.65;;;;;;;;;;10300733;28;20036;-76
2023/05/20 13:07:25;;;;;;;5.57;3.55;;;;;;;;;;10301281;28;20422;-75
2023/05/20 13:12:26;;;;;;;12.10;3.92;;;;;;;;;;10300477;28;20416;-78
2023/05/20 13:17:27;;;;;;;10.52;3.83;;;;;;;;;;10317243;28;20035;-78
2023/05/20 13:22:27;;;;;;;5.50;3.72;;;;;;;;;;10299171;28;20090;-76
2023/05/20 13:27:27;;;;;;;10.07;5.10;;;;;;;;;;10293005;28;20062;-79
2023/05/20 13:32:27;;;;;;;7.00;3.72;;;;;;;;;;10305993;28;20113;-77
2023/05/20 13:37:28;;;;;;;8.48;4.45;;;;;;;;;;10315994;28;20038;-76
2023/05/20 13:42:29;;;;;;;5.80;4.38;;;;;;;;;;10299525;28;20030;-77
2023/05/20 13:47:29;;;;;;;9.20;4.53;;;;;;;;;;10316760;28;20595;-78
2023/05/20 13:52:29;;;;;;;7.93;4.05;;;;;;;;;;10316058;28;20116;-77
2023/05/20 13:57:30;;;;;;;6.95;4.68;;;;;;;;;;10315023;28;20042;-78
2023/05/20 14:02:30;;;;;;;8.65;4.85;;;;;;;;;;10323390;28;20524;-79
2023/05/20 14:07:31;;;;;;;6.28;4.50;;;;;;;;;;10325958;28;20038;-76
2023/05/20 14:12:31;;;;;;;7.53;4.33;;;;;;;;;;10307344;28;20424;-78
2023/05/20 14:17:31;;;;;;;12.32;4.72;;;;;;;;;;10323767;28;20125;-77
2023/05/20 14:22:32;;;;;;;10.75;5.20;;;;;;;;;;10303654;28;20050;-76
2023/05/20 14:27:33;;;;;;;10.98;6.60;;;;;;;;;;10321787;28;20480;-74
2023/05/20 14:32:33;;;;;;;9.45;5.45;;;;;;;;;;10305704;28;20030;-78
2023/05/20 14:37:33;;;;;;;12.57;5.80;;;;;;;;;;10321845;28;20042;-82
2023/05/20 14:42:34;;;;;;;10.65;5.35;;;;;;;;;;10304500;28;20270;-74
2023/05/20 14:47:34;;;;;;;9.52;5.50;;;;;;;;;;10321184;28;20050;-78
2023/05/20 14:52:35;;;;;;;9.82;5.13;;;;;;;;;;10320848;28;20109;-77
2023/05/20 14:57:35;;;;;;;9.20;5.05;;;;;;;;;;10304966;28;20178;-75
2023/05/20 15:02:36;;;;;;;10.80;5.70;;;;;;;;;;10338846;23;20263;-75
2023/05/20 15:07:36;;;;;;;8.40;5.78;;;;;;;;;;10369464;28;20044;-75
2023/05/20 15:12:37;;;;;;;19.45;6.55;;;;;;;;;;10376147;28;20038;-75
2023/05/20 15:17:37;;;;;;;9.98;6.28;;;;;;;;;;10375917;28;20026;-75
2023/05/20 15:22:37;;;;;;;12.35;6.03;;;;;;;;;;10376413;28;20034;-76
2023/05/20 15:27:38;;;;;;;8.18;4.88;;;;;;;;;;10375148;28;20033;-76
2023/05/20 15:32:39;;;;;;;9.05;5.35;;;;;;;;;;10375946;28;20339;-75
2023/05/20 15:37:40;;;;;;;9.80;4.78;;;;;;;;;;10377152;28;20030;-76
2023/05/20 15:42:41;;;;;;;8.60;4.97;;;;;;;;;;10376607;28;20201;-76
2023/05/20 15:47:41;;;;;;;11.13;6.45;;;;;;;;;;10376082;28;20084;-75
2023/05/20 15:52:42;;;;;;;9.30;5.35;;;;;;;;;;10376423;28;20030;-74
2023/05/20 15:57:42;;;;;;;8.60;4.95;;;;;;;;;;10376414;28;20041;-75
2023/05/20 16:02:42;;;;;;;11.85;5.97;;;;;;;;;;10346132;28;20097;-76
2023/05/20 16:07:44;;;;;;;9.07;5.10;;;;;;;;;;10333973;28;20056;-76
2023/05/20 16:12:45;;;;;;;8.23;5.95;;;;;;;;;;10335143;28;20093;-75
2023/05/20 16:17:45;;;;;;;6.20;4.63;;;;;;;;;;10334774;28;20339;-76
2023/05/20 16:22:45;;;;;;;9.45;6.40;;;;;;;;;;10334002;28;20027;-76
2023/05/20 16:27:45;;;;;;;10.75;5.70;;;;;;;;;;10334806;28;20232;-75
2023/05/20 16:32:46;;;;;;;13.73;6.28;;;;;;;;;;10334550;28;20030;-76
2023/05/20 16:37:46;;;;;;;10.65;5.70;;;;;;;;;;10334034;28;20061;-75
2023/05/20 16:42:46;;;;;;;8.75;5.05;;;;;;;;;;10334509;28;20338;-75
2023/05/20 16:47:47;;;;;;;8.25;5.53;;;;;;;;;;10333252;28;20036;-75
2023/05/20 16:52:47;;;;;;;17.97;6.90;;;;;;;;;;10333963;28;20040;-75
2023/05/20 16:57:49;;;;;;;8.77;5.68;;;;;;;;;;10334018;28;20030;-75
2023/05/20 17:02:49;;;;;;;10.40;5.68;;;;;;;;;;10356599;28;20056;-75
2023/05/20 17:07:50;;;;;;;16.13;7.50;;;;;;;;;;10374691;28;20041;-75
2023/05/20 17:12:50;;;;;;;10.65;5.47;;;;;;;;;;10374129;28;20458;-74
2023/05/20 17:17:50;;;;;;;11.90;6.07;;;;;;;;;;10374178;28;20052;-75
2023/05/20 17:22:50;;;;;;;13.85;5.88;;;;;;;;;;10374334;28;20542;-75
2023/05/20 17:27:51;;;;;;;10.38;4.93;;;;;;;;;;10373539;28;20080;-75
2023/05/20 17:32:52;;;;;;;10.20;5.33;;;;;;;;;;10373127;28;20040;-75
2023/05/20 17:37:52;;;;;;;9.20;5.38;;;;;;;;;;10383407;28;20045;-76
2023/05/20 17:42:52;;;;;;;9.63;5.90;;;;;;;;;;10380943;28;20312;-76
2023/05/20 17:47:53;;;;;;;16.75;7.32;;;;;;;;;;10381574;28;20217;-75
2023/05/20 17:52:53;;;;;;;12.02;5.00;;;;;;;;;;10381788;28;20224;-76
2023/05/20 17:57:53;;;;;;;12.10;6.28;;;;;;;;;;10380586;28;20038;-76
2023/05/20 18:02:57;;;;;;;10.30;5.00;;;;;;;;;;10338532;28;20061;-75
2023/05/20 18:07:58;;;;;;;10.00;5.53;;;;;;;;;;10339995;28;20059;-75
2023/05/20 18:12:58;;;;;;;12.55;5.63;;;;;;;;;;10321812;28;20041;-76
2023/05/20 18:18:00;;;;;;;9.40;4.85;;;;;;;;;;10339433;28;20098;-76
2023/05/20 18:23:00;;;;;;;10.27;5.80;;;;;;;;;;10339513;28;20038;-76
2023/05/20 18:28:01;;;;;;;7.10;4.65;;;;;;;;;;10321382;28;20085;-74
2023/05/20 18:33:02;;;;;;;12.27;5.80;;;;;;;;;;10321759;28;20198;-72
2023/05/20 18:38:02;;;;;;;22.13;8.80;;;;;;;;;;10301948;28;20050;-72
2023/05/20 18:43:02;;;;;;;10.52;5.68;;;;;;;;;;10300030;28;20539;-76
2023/05/20 18:48:03;;;;;;;14.20;5.35;;;;;;;;;;10303596;28;20031;-77
2023/05/20 18:53:04;;;;;;;17.13;6.43;;;;;;;;;;10297634;28;20030;-73
2023/05/20 18:58:04;;;;;;;10.57;5.93;;;;;;;;;;10300581;28;20223;-73
2023/05/20 19:03:05;;;;;;;15.20;6.43;;;;;;;;;;10303187;28;20026;-76
2023/05/20 19:08:05;;;;;;;10.65;6.15;;;;;;;;;;10306441;28;20039;-76
2023/05/20 19:13:05;;;;;;;9.97;5.50;;;;;;;;;;10298368;28;20351;-76
2023/05/20 19:18:05;;;;;;;9.93;6.22;;;;;;;;;;10299481;28;20102;-75
2023/05/20 19:23:06;;;;;;;11.20;6.23;;;;;;;;;;10296305;28;20065;-75
2023/05/20 19:28:06;;;;;;;10.20;5.72;;;;;;;;;;10301680;28;20027;-73
2023/05/20 19:33:06;;;;;;;9.45;5.63;;;;;;;;;;10300714;28;20034;-71
2023/05/20 19:38:07;;;;;;;12.43;5.68;;;;;;;;;;10307985;28;20022;-78
2023/05/20 19:43:07;;;;;;;10.13;6.50;;;;;;;;;;10309721;28;20188;-75
2023/05/20 19:48:07;;;;;;;11.93;6.63;;;;;;;;;;10305197;28;20370;-74
2023/05/20 19:53:07;;;;;;;13.43;7.27;;;;;;;;;;10304081;28;20026;-75
2023/05/20 19:58:08;;;;;;;11.45;6.65;;;;;;;;;;10298644;28;20274;-75
2023/05/20 20:03:08;;;;;;;17.92;6.53;;;;;;;;;;10299283;28;20050;-79
2023/05/20 20:08:11;;;;;;;13.85;6.68;;;;;;;;;;10310797;28;20197;-78
2023/05/20 20:13:11;;;;;;;15.63;6.60;;;;;;;;;;10307386;28;20064;-77
2023/05/20 20:18:12;;;;;;;10.82;6.82;;;;;;;;;;10305276;28;20038;-77
2023/05/20 20:23:12;;;;;;;13.00;7.73;;;;;;;;;;10301599;28;20268;-76
2023/05/20 20:28:13;;;;;;;11.80;6.90;;;;;;;;;;10300531;28;20042;-77
2023/05/20 20:33:13;;;;;;;10.15;7.68;;;;;;;;;;10300199;28;20027;-74
2023/05/20 20:38:14;;;;;;;15.23;7.25;;;;;;;;;;10301609;28;20027;-74
2023/05/20 20:43:17;;;;;;;15.18;6.82;;;;;;;;;;10300600;28;20026;-75
2023/05/20 20:48:18;;;;;;;13.15;7.70;;;;;;;;;;10298230;28;20085;-76
2023/05/20 20:53:18;;;;;;;14.05;8.20;;;;;;;;;;10302169;28;20212;-75
2023/05/20 20:58:18;;;;;;;12.00;8.33;;;;;;;;;;10311506;28;20027;-71
2023/05/20 21:03:22;;;;;;;13.27;8.07;;;;;;;;;;10306739;28;20035;-77
2023/05/20 21:08:26;;;;;;;11.85;8.00;;;;;;;;;;10305212;28;20236;-76
2023/05/20 21:13:27;;;;;;;14.18;7.80;;;;;;;;;;10319644;28;20062;-75
2023/05/20 21:18:27;;;;;;;14.93;7.55;;;;;;;;;;10308689;28;20382;-73
2023/05/20 21:23:27;;;;;;;14.70;6.93;;;;;;;;;;10315296;28;20031;-76
2023/05/20 21:28:28;;;;;;;15.20;8.13;;;;;;;;;;10319501;28;20014;-78
2023/05/20 21:33:28;;;;;;;16.92;7.03;;;;;;;;;;10320124;28;20045;-78
2023/05/20 21:38:28;;;;;;;16.45;8.25;;;;;;;;;;10311777;28;20267;-79
2023/05/20 21:43:29;;;;;;;11.87;7.10;;;;;;;;;;10321866;28;20026;-79
2023/05/20 21:48:29;;;;;;;22.13;8.10;;;;;;;;;;10319514;28;20026;-71
2023/05/20 21:53:30;;;;;;;16.60;8.85;;;;;;;;;;10318084;28;20053;-73
2023/05/20 21:58:30;;;;;;;19.75;8.93;;;;;;;;;;10335998;28;20050;-73
2023/05/20 22:03:31;;;;;;;16.57;8.73;;;;;;;;;;10337842;28;20046;-73
2023/05/20 22:08:34;;;;;;;17.10;8.25;;;;;;;;;;10337569;28;20061;-73
2023/05/20 22:13:35;;;;;;;18.08;8.27;;;;;;;;;;10336597;28;20030;-73
2023/05/20 22:18:35;;;;;;;13.10;8.57;;;;;;;;;;10336688;28;20542;-72
2023/05/20 22:23:35;;;;;;;16.65;9.15;;;;;;;;;;10337142;28;20034;-74
2023/05/20 22:28:35;;;;;;;17.20;9.60;;;;;;;;;;10339179;28;20038;-74
2023/05/20 22:33:36;;;;;;;16.67;8.55;;;;;;;;;;10339455;28;20053;-74
2023/05/20 22:38:36;;;;;;;17.35;9.20;;;;;;;;;;10338882;28;20046;-74
2023/05/20 22:43:37;;;;;;;19.25;9.02;;;;;;;;;;10338520;28;20089;-73
2023/05/20 22:48:37;;;;;;;20.45;9.63;;;;;;;;;;10338624;28;20038;-74
2023/05/20 22:53:37;;;;;;;15.65;8.20;;;;;;;;;;10338316;28;20363;-73
2023/05/20 22:58:38;;;;;;;17.00;8.65;;;;;;;;;;10337934;28;20038;-74
2023/05/20 23:03:38;;;;;;;20.67;10.45;;;;;;;;;;10337947;28;20332;-75
2023/05/20 23:08:41;;;;;;;15.40;8.98;;;;;;;;;;10337786;28;20046;-74
2023/05/20 23:13:41;;;;;;;13.48;7.95;;;;;;;;;;10337214;28;20031;-74
2023/05/20 23:18:42;;;;;;;18.00;10.05;;;;;;;;;;10336863;28;20038;-74
2023/05/20 23:23:42;;;;;;;16.03;9.00;;;;;;;;;;10334742;28;20378;-75
2023/05/20 23:28:42;;;;;;;16.20;10.40;;;;;;;;;;10343973;28;20203;-73
2023/05/20 23:33:42;;;;;;;16.58;10.38;;;;;;;;;;10333443;28;20063;-74
2023/05/20 23:38:43;;;;;;;18.48;10.35;;;;;;;;;;10333033;28;20077;-73
2023/05/20 23:43:43;;;;;;;21.33;10.30;;;;;;;;;;10332591;28;20332;-74
2023/05/20 23:48:44;;;;;;;20.73;9.35;;;;;;;;;;10332199;28;20037;-73
2023/05/20 23:53:44;;;;;;;14.90;10.00;;;;;;;;;;10335754;28;20034;-73
2023/05/20 23:58:46;;;;;;;17.70;9.35;;;;;;;;;;10334971;28;20074;-74
